Wickliffe, KY (42087)

2:38 AM CDT on May 27, 2017 (GMT -0500)
South Adkins Dixon Road | | Change Station
Active Advisory: Flood Warning

Elev 443 ft 37.01 °N, 89.03 °W | Updated 0 second ago

Mostly Cloudy
Mostly Cloudy
72.3 °F
Feels Like 72.3 °F
N
0.0
Wind Variable Wind from SW
Gusts 0.0 mph

Today
High -- | Low -- °F
--% Chance of Precip.
Yesterday
High -- | Low -- °F
Precip. -- in
Pressure 29.85 in
Visibility 7.0 miles
Clouds Scattered Clouds 7500 ft
Dew Point 70 °F
Humidity 93%
Rainfall 0.00 in
Snow Depth Not available.
5:40 AM 8:07 PM
Waxing Crescent, 3% visible
METAR KCIR 270715Z AUTO 00000KT 7SM SCT075 21/21 A2985 RMK AO2 T02080205
Pressure 29.85 in
Visibility 7.0 miles
Clouds Scattered Clouds 7500 ft
Dew Point 70 °F
Humidity 93%
Rainfall 0.00 in
Snow Depth Not available.
5:40 AM 8:07 PM
Waxing Crescent, 3% visible
METAR KCIR 270715Z AUTO 00000KT 7SM SCT075 21/21 A2985 RMK AO2 T02080205

Get Your Daily Forecast Email!

Thanks for signing up!

Be on the lookout for a verification email in your inbox.

You'll start receiving severe weather alerts in your inbox..

×

10-Day Weather Forecast

Almanac

Astronomy

May. 27, 2017 Rise Set
Actual Time
Civil Twilight
Nautical Twilight
Astronomical Twilight
Moon
Length of Visible Light
Length of Day
Tomorrow will be .
, % of the Moon is Illuminated

Today's Extremes

State Highs State Lows

Community

WunderPhotos

Category 6

Welcome to Category 6. This is the collective home for Weather Underground's featured writeups by Dr. Jeff Masters (right), Bob Henson (left), Chris Burt, and other regular contributors.

Nearby

Air Quality

  Air Quality AQ Index Pollutant
Not available.

Snow Depth

Station Depth Elevation

Earthquake Activity

City Distance Mag. Time & Date
Minimum magnitude displayed is 2.5.

Coastal Water Temperatures

Place Temperature

Stations

Nearby Weather Stations

Station Location Temp. Windchill Dew Point Humidity Wind Precip. Elev Updated Type
                   

Watches & Warnings

Flood Warning
Issued: 8:53 PM CDT May. 26, 2017 – National Weather Service

The Flood Warning continues for the Ohio River at Cairo.
* Until Friday June 02.
* At 8:00 PM Friday the stage was 41.2 feet.
* Flood stage is 40.0 feet.
* Minor flooding is occurring and minor flooding is forecast.
* Forecast... the river will hold nearly steady over the weekend,
then resume its fall early next week. The river should fall below
flood stage Thursday evening.
* Impact... at 40.0 feet... minor flooding occurs affecting mainly
agricultural bottomland and low lying areas.


Lat... Lon 3709 8946 3717 8916 3709 8907 3680 8900
      3651 8918